Parker, Colorado
Current Conditions -  °F | °C
As of 5:53 AM on Saturday 25 Oct 2014 (Local Time) from KAPA Reporting Station
Clear Clear  
Wind Chill: 51°   Ceiling: Unl
Heat Index: 51°   Visibility: 10mi
Dew Point: 21°   Wind: 10mph
Humidity: 31%   Direction: 250°WSW
Pressure: 30.24"   Gusts: NA
Location:  39.52°N, 104.76°W
Report Text: KAPA 251153Z 25009KT 10SM CLR 11/M06 A3024 RMK AO2 SLP196 T01061061 10150 20072 53001
Loading
Personal Weather Stations






























Interactive Weather Map New forecast layout! Learn more

10-Day Weather Forecast

Advertisements
Track Severe Weather on mobile